sensor_id;sensor_type;location;lat;lon;timestamp;pressure;altitude;pressure_sealevel;temperature;humidity
24306;BME280;12423;48.768;8.850;2023-02-12T00:01:15;98881.94;;;4.02;100.00
24306;BME280;12423;48.768;8.850;2023-02-12T00:03:16;98882.09;;;3.97;100.00
24306;BME280;12423;48.768;8.850;2023-02-12T00:05:17;98876.75;;;3.99;100.00
24306;BME280;12423;48.768;8.850;2023-02-12T00:07:18;98874.91;;;4.01;100.00
24306;BME280;12423;48.768;8.850;2023-02-12T00:09:19;98876.56;;;4.05;100.00
24306;BME280;12423;48.768;8.850;2023-02-12T00:11:23;98874.09;;;3.99;100.00
24306;BME280;12423;48.768;8.850;2023-02-12T00:13:24;98876.63;;;4.03;100.00
24306;BME280;12423;48.768;8.850;2023-02-12T00:15:25;98872.22;;;4.02;100.00
24306;BME280;12423;48.768;8.850;2023-02-12T00:17:26;98876.75;;;3.99;100.00
24306;BME280;12423;48.768;8.850;2023-02-12T00:19:27;98874.84;;;4.04;100.00
24306;BME280;12423;48.768;8.850;2023-02-12T00:21:28;98878.31;;;4.06;100.00
24306;BME280;12423;48.768;8.850;2023-02-12T00:23:30;98876.66;;;4.02;100.00
24306;BME280;12423;48.768;8.850;2023-02-12T00:25:31;98881.94;;;4.02;100.00
24306;BME280;12423;48.768;8.850;2023-02-12T00:27:33;98875.63;;;4.08;100.00
24306;BME280;12423;48.768;8.850;2023-02-12T00:29:36;98878.28;;;4.08;100.00
24306;BME280;12423;48.768;8.850;2023-02-12T00:31:39;98886.44;;;4.00;100.00
24306;BME280;12423;48.768;8.850;2023-02-12T00:33:40;98881.00;;;4.04;100.00
24306;BME280;12423;48.768;8.850;2023-02-12T00:35:41;98888.25;;;3.98;100.00
24306;BME280;12423;48.768;8.850;2023-02-12T00:37:42;98889.16;;;3.97;100.00
24306;BME280;12423;48.768;8.850;2023-02-12T00:39:43;98899.66;;;4.00;100.00
24306;BME280;12423;48.768;8.850;2023-02-12T00:41:45;98893.38;;;4.02;100.00
24306;BME280;12423;48.768;8.850;2023-02-12T00:43:46;98886.31;;;4.04;100.00
24306;BME280;12423;48.768;8.850;2023-02-12T00:45:48;98884.47;;;4.06;100.00
24306;BME280;12423;48.768;8.850;2023-02-12T00:47:49;98893.25;;;4.07;100.00
24306;BME280;12423;48.768;8.850;2023-02-12T00:49:50;98891.63;;;4.03;100.00
24306;BME280;12423;48.768;8.850;2023-02-12T00:51:51;98901.44;;;3.99;100.00
24306;BME280;12423;48.768;8.850;2023-02-12T00:53:52;98899.59;;;4.01;100.00
24306;BME280;12423;48.768;8.850;2023-02-12T00:55:53;98906.63;;;4.02;100.00
24306;BME280;12423;48.768;8.850;2023-02-12T00:57:55;98908.31;;;4.05;100.00
24306;BME280;12423;48.768;8.850;2023-02-12T00:59:56;98903.03;;;4.05;100.00
24306;BME280;12423;48.768;8.850;2023-02-12T01:01:57;98907.63;;;3.98;100.00
24306;BME280;12423;48.768;8.850;2023-02-12T01:03:58;98905.03;;;3.97;100.00
24306;BME280;12423;48.768;8.850;2023-02-12T01:06:00;98911.19;;;3.97;100.00
24306;BME280;12423;48.768;8.850;2023-02-12T01:08:02;98903.28;;;3.96;100.00
24306;BME280;12423;48.768;8.850;2023-02-12T01:10:05;98907.72;;;3.95;100.00
24306;BME280;12423;48.768;8.850;2023-02-12T01:12:06;98913.19;;;3.89;100.00
24306;BME280;12423;48.768;8.850;2023-02-12T01:14:07;98913.22;;;3.87;100.00
24306;BME280;12423;48.768;8.850;2023-02-12T01:16:17;98908.09;;;3.83;100.00
24306;BME280;12423;48.768;8.850;2023-02-12T01:18:18;98903.56;;;3.86;100.00
24306;BME280;12423;48.768;8.850;2023-02-12T01:20:21;98907.88;;;3.89;100.00
24306;BME280;12423;48.768;8.850;2023-02-12T01:22:23;98905.19;;;3.91;100.00
24306;BME280;12423;48.768;8.850;2023-02-12T01:24:24;98911.41;;;3.90;100.00
24306;BME280;12423;48.768;8.850;2023-02-12T01:26:26;98915.81;;;3.89;100.00
24306;BME280;12423;48.768;8.850;2023-02-12T01:28:27;98914.06;;;3.90;100.00
24306;BME280;12423;48.768;8.850;2023-02-12T01:30:28;98902.66;;;3.87;100.00
24306;BME280;12423;48.768;8.850;2023-02-12T01:32:29;98908.78;;;3.90;100.00
24306;BME280;12423;48.768;8.850;2023-02-12T01:34:30;98910.56;;;3.87;100.00
24306;BME280;12423;48.768;8.850;2023-02-12T01:36:31;98910.53;;;3.89;100.00
24306;BME280;12423;48.768;8.850;2023-02-12T01:38:32;98910.69;;;3.84;100.00
24306;BME280;12423;48.768;8.850;2023-02-12T01:40:33;98910.75;;;3.83;100.00
24306;BME280;12423;48.768;8.850;2023-02-12T01:42:37;98917.78;;;3.82;100.00
24306;BME280;12423;48.768;8.850;2023-02-12T01:44:44;98915.97;;;3.84;100.00
24306;BME280;12423;48.768;8.850;2023-02-12T01:46:48;98910.56;;;3.87;100.00
24306;BME280;12423;48.768;8.850;2023-02-12T01:48:49;98900.13;;;3.84;100.00
24306;BME280;12423;48.768;8.850;2023-02-12T01:50:52;98902.81;;;3.83;100.00
24306;BME280;12423;48.768;8.850;2023-02-12T01:52:56;98893.16;;;3.80;100.00
24306;BME280;12423;48.768;8.850;2023-02-12T01:55:00;98895.78;;;3.82;100.00
24306;BME280;12423;48.768;8.850;2023-02-12T01:57:04;98897.53;;;3.83;100.00
24306;BME280;12423;48.768;8.850;2023-02-12T01:59:06;98900.25;;;3.80;100.00
24306;BME280;12423;48.768;8.850;2023-02-12T02:01:12;98894.63;;;3.91;100.00
24306;BME280;12423;48.768;8.850;2023-02-12T02:03:15;98900.88;;;3.88;100.00
24306;BME280;12423;48.768;8.850;2023-02-12T02:05:45;98898.25;;;3.88;100.00
24306;BME280;12423;48.768;8.850;2023-02-12T02:07:44;98896.47;;;3.88;100.00
24306;BME280;12423;48.768;8.850;2023-02-12T02:09:45;98894.72;;;3.87;100.00
24306;BME280;12423;48.768;8.850;2023-02-12T02:11:46;98888.63;;;3.85;100.00
24306;BME280;12423;48.768;8.850;2023-02-12T02:14:06;98891.97;;;3.91;100.00
24306;BME280;12423;48.768;8.850;2023-02-12T02:16:28;98892.63;;;3.99;100.00
24306;BME280;12423;48.768;8.850;2023-02-12T02:18:39;98892.63;;;3.99;100.00
24306;BME280;12423;48.768;8.850;2023-02-12T02:21:01;98887.47;;;3.94;100.00
24306;BME280;12423;48.768;8.850;2023-02-12T02:25:59;98885.88;;;3.88;100.00
24306;BME280;12423;48.768;8.850;2023-02-12T02:31:03;98876.75;;;3.99;100.00
24306;BME280;12423;48.768;8.850;2023-02-12T02:33:35;98882.78;;;4.04;100.00
24306;BME280;12423;48.768;8.850;2023-02-12T02:35:48;98875.75;;;4.03;100.00
24306;BME280;12423;48.768;8.850;2023-02-12T02:40:18;98876.84;;;3.96;100.00
24306;BME280;12423;48.768;8.850;2023-02-12T02:42:37;98872.56;;;3.92;100.00
24306;BME280;12423;48.768;8.850;2023-02-12T02:45:12;98878.81;;;3.89;100.00
24306;BME280;12423;48.768;8.850;2023-02-12T02:47:16;98877.22;;;3.83;100.00
24306;BME280;12423;48.768;8.850;2023-02-12T02:49:25;98873.03;;;3.76;100.00
24306;BME280;12423;48.768;8.850;2023-02-12T02:51:30;98866.81;;;3.77;100.00
24306;BME280;12423;48.768;8.850;2023-02-12T02:53:37;98865.00;;;3.79;100.00
24306;BME280;12423;48.768;8.850;2023-02-12T02:55:43;98860.69;;;3.77;100.00
24306;BME280;12423;48.768;8.850;2023-02-12T02:57:59;98863.31;;;3.77;100.00
24306;BME280;12423;48.768;8.850;2023-02-12T03:00:15;98867.66;;;3.78;100.00
24306;BME280;12423;48.768;8.850;2023-02-12T03:02:24;98866.78;;;3.79;100.00
24306;BME280;12423;48.768;8.850;2023-02-12T03:04:32;98873.84;;;3.78;100.00
24306;BME280;12423;48.768;8.850;2023-02-12T03:06:40;98870.28;;;3.79;100.00
24306;BME280;12423;48.768;8.850;2023-02-12T03:08:57;98864.09;;;3.80;100.00
24306;BME280;12423;48.768;8.850;2023-02-12T03:11:09;98864.19;;;3.77;100.00
24306;BME280;12423;48.768;8.850;2023-02-12T03:13:20;98864.84;;;3.84;100.00
24306;BME280;12423;48.768;8.850;2023-02-12T03:15:32;98867.66;;;3.78;100.00
24306;BME280;12423;48.768;8.850;2023-02-12T03:17:39;98861.53;;;3.77;100.00
24306;BME280;12423;48.768;8.850;2023-02-12T03:19:49;98872.03;;;3.80;100.00
24306;BME280;12423;48.768;8.850;2023-02-12T03:22:13;98866.66;;;3.83;100.00
24306;BME280;12423;48.768;8.850;2023-02-12T03:24:28;98867.63;;;3.79;100.00
24306;BME280;12423;48.768;8.850;2023-02-12T03:26:41;98868.72;;;3.72;100.00
24306;BME280;12423;48.768;8.850;2023-02-12T03:28:43;98861.53;;;3.77;100.00
24306;BME280;12423;48.768;8.850;2023-02-12T03:30:51;98874.72;;;3.79;100.00
24306;BME280;12423;48.768;8.850;2023-02-12T03:33:09;98863.44;;;3.72;100.00
24306;BME280;12423;48.768;8.850;2023-02-12T03:35:32;98875.56;;;3.79;100.00
24306;BME280;12423;48.768;8.850;2023-02-12T03:37:39;98879.13;;;3.78;100.00
24306;BME280;12423;48.768;8.850;2023-02-12T03:40:14;98875.59;;;3.78;100.00
24306;BME280;12423;48.768;8.850;2023-02-12T03:42:32;98876.44;;;3.80;100.00
24306;BME280;12423;48.768;8.850;2023-02-12T03:46:57;98878.13;;;3.82;100.00
24306;BME280;12423;48.768;8.850;2023-02-12T03:49:06;98875.56;;;3.79;100.00
24306;BME280;12423;48.768;8.850;2023-02-12T03:51:22;98877.31;;;3.80;100.00
24306;BME280;12423;48.768;8.850;2023-02-12T03:53:26;98877.47;;;3.74;100.00
24306;BME280;12423;48.768;8.850;2023-02-12T03:55:30;98880.97;;;3.76;100.00
24306;BME280;12423;48.768;8.850;2023-02-12T03:57:40;98881.69;;;3.81;100.00
24306;BME280;12423;48.768;8.850;2023-02-12T03:59:42;98879.88;;;3.83;100.00
24306;BME280;12423;48.768;8.850;2023-02-12T04:01:44;98875.69;;;3.76;100.00
24306;BME280;12423;48.768;8.850;2023-02-12T04:03:45;98874.88;;;3.73;100.00
24306;BME280;12423;48.768;8.850;2023-02-12T04:05:46;98881.94;;;3.72;100.00
24306;BME280;12423;48.768;8.850;2023-02-12T04:07:48;98879.31;;;3.72;100.00
24306;BME280;12423;48.768;8.850;2023-02-12T04:09:50;98879.41;;;3.69;100.00
24306;BME280;12423;48.768;8.850;2023-02-12T04:16:51;98877.59;;;3.69;100.00
24306;BME280;12423;48.768;8.850;2023-02-12T04:18:54;98881.09;;;3.72;100.00
24306;BME280;12423;48.768;8.850;2023-02-12T04:21:41;98884.50;;;3.75;100.00
24306;BME280;12423;48.768;8.850;2023-02-12T04:30:30;98891.66;;;3.72;100.00
24306;BME280;12423;48.768;8.850;2023-02-12T04:32:37;98890.66;;;3.76;100.00
24306;BME280;12423;48.768;8.850;2023-02-12T04:35:02;98895.84;;;3.79;100.00
24306;BME280;12423;48.768;8.850;2023-02-12T04:37:14;98893.16;;;3.80;100.00
24306;BME280;12423;48.768;8.850;2023-02-12T04:39:20;98899.59;;;3.72;100.00
24306;BME280;12423;48.768;8.850;2023-02-12T04:41:23;98897.84;;;3.71;100.00
24306;BME280;12423;48.768;8.850;2023-02-12T04:43:33;98905.75;;;3.72;100.00
24306;BME280;12423;48.768;8.850;2023-02-12T04:45:36;98903.88;;;3.76;100.00
24306;BME280;12423;48.768;8.850;2023-02-12T04:47:37;98902.28;;;3.70;100.00
24306;BME280;12423;48.768;8.850;2023-02-12T04:49:38;98905.81;;;3.69;100.00
24306;BME280;12423;48.768;8.850;2023-02-12T04:51:39;98903.09;;;3.72;100.00
24306;BME280;12423;48.768;8.850;2023-02-12T04:53:40;98905.75;;;3.72;100.00
24306;BME280;12423;48.768;8.850;2023-02-12T04:55:41;98911.13;;;3.69;100.00
24306;BME280;12423;48.768;8.850;2023-02-12T04:57:43;98904.19;;;3.65;100.00
24306;BME280;12423;48.768;8.850;2023-02-12T04:59:44;98905.81;;;3.69;100.00
24306;BME280;12423;48.768;8.850;2023-02-12T05:01:45;98899.72;;;3.67;100.00
24306;BME280;12423;48.768;8.850;2023-02-12T05:03:46;98902.38;;;3.67;100.00
24306;BME280;12423;48.768;8.850;2023-02-12T05:05:47;98902.31;;;3.68;100.00
24306;BME280;12423;48.768;8.850;2023-02-12T05:07:48;98904.00;;;3.71;100.00
24306;BME280;12423;48.768;8.850;2023-02-12T05:09:49;98899.69;;;3.68;100.00
24306;BME280;12423;48.768;8.850;2023-02-12T05:11:50;98898.81;;;3.68;100.00
24306;BME280;12423;48.768;8.850;2023-02-12T05:13:51;98896.22;;;3.66;100.00
24306;BME280;12423;48.768;8.850;2023-02-12T05:15:52;98897.97;;;3.66;100.00
24306;BME280;12423;48.768;8.850;2023-02-12T05:17:53;98900.63;;;3.66;100.00
24306;BME280;12423;48.768;8.850;2023-02-12T05:19:54;98897.03;;;3.68;100.00
24306;BME280;12423;48.768;8.850;2023-02-12T05:21:55;98902.28;;;3.70;100.00
24306;BME280;12423;48.768;8.850;2023-02-12T05:23:56;98899.66;;;3.70;100.00
24306;BME280;12423;48.768;8.850;2023-02-12T05:25:59;98896.13;;;3.69;100.00
24306;BME280;12423;48.768;8.850;2023-02-12T05:28:00;98904.97;;;3.68;100.00
24306;BME280;12423;48.768;8.850;2023-02-12T05:30:01;98901.56;;;3.65;100.00
24306;BME280;12423;48.768;8.850;2023-02-12T05:32:02;98903.28;;;3.66;100.00
24306;BME280;12423;48.768;8.850;2023-02-12T05:34:05;98897.03;;;3.68;100.00
24306;BME280;12423;48.768;8.850;2023-02-12T05:36:09;98898.91;;;3.65;100.00
24306;BME280;12423;48.768;8.850;2023-02-12T05:38:10;98901.72;;;3.59;100.00
24306;BME280;12423;48.768;8.850;2023-02-12T05:40:12;98905.25;;;3.58;100.00
24306;BME280;12423;48.768;8.850;2023-02-12T05:42:13;98906.81;;;3.66;100.00
24306;BME280;12423;48.768;8.850;2023-02-12T05:44:13;98897.97;;;3.66;100.00
24306;BME280;12423;48.768;8.850;2023-02-12T05:46:16;98906.97;;;3.60;100.00
24306;BME280;12423;48.768;8.850;2023-02-12T05:48:17;98905.22;;;3.59;100.00
24306;BME280;12423;48.768;8.850;2023-02-12T05:50:18;98901.72;;;3.59;100.00
24306;BME280;12423;48.768;8.850;2023-02-12T05:52:19;98902.66;;;3.56;100.00
24306;BME280;12423;48.768;8.850;2023-02-12T05:54:20;98905.47;;;3.52;100.00
24306;BME280;12423;48.768;8.850;2023-02-12T05:56:24;98903.53;;;3.57;100.00
24306;BME280;12423;48.768;8.850;2023-02-12T05:58:25;98907.16;;;3.53;100.00
24306;BME280;12423;48.768;8.850;2023-02-12T06:00:26;98900.13;;;3.53;100.00
24306;BME280;12423;48.768;8.850;2023-02-12T06:02:27;98902.69;;;3.55;100.00
24306;BME280;12423;48.768;8.850;2023-02-12T06:04:28;98902.63;;;3.58;100.00
24306;BME280;12423;48.768;8.850;2023-02-12T06:06:30;98892.03;;;3.58;100.00
24306;BME280;12423;48.768;8.850;2023-02-12T06:08:33;98897.34;;;3.58;100.00
24306;BME280;12423;48.768;8.850;2023-02-12T06:10:34;98899.13;;;3.57;100.00
24306;BME280;12423;48.768;8.850;2023-02-12T06:12:35;98897.41;;;3.55;100.00
24306;BME280;12423;48.768;8.850;2023-02-12T06:14:35;98898.31;;;3.55;100.00
24306;BME280;12423;48.768;8.850;2023-02-12T06:16:36;98902.69;;;3.55;100.00
24306;BME280;12423;48.768;8.850;2023-02-12T06:18:37;98896.47;;;3.57;100.00
24306;BME280;12423;48.768;8.850;2023-02-12T06:20:38;98893.84;;;3.57;100.00
24306;BME280;12423;48.768;8.850;2023-02-12T06:22:40;98907.75;;;3.64;100.00
24306;BME280;12423;48.768;8.850;2023-02-12T06:24:40;98906.00;;;3.63;100.00
24306;BME280;12423;48.768;8.850;2023-02-12T06:26:42;98899.00;;;3.62;100.00
24306;BME280;12423;48.768;8.850;2023-02-12T06:28:43;98896.41;;;3.60;100.00
24306;BME280;12423;48.768;8.850;2023-02-12T06:30:44;98897.09;;;3.67;100.00
24306;BME280;12423;48.768;8.850;2023-02-12T06:32:48;98898.75;;;3.69;100.00
24306;BME280;12423;48.768;8.850;2023-02-12T06:34:49;98902.41;;;3.65;100.00
24306;BME280;12423;48.768;8.850;2023-02-12T06:36:50;98912.16;;;3.63;100.00
24306;BME280;12423;48.768;8.850;2023-02-12T06:38:52;98909.56;;;3.62;100.00
24306;BME280;12423;48.768;8.850;2023-02-12T06:40:52;98909.47;;;3.65;100.00
24306;BME280;12423;48.768;8.850;2023-02-12T06:42:53;98916.47;;;3.66;100.00
24306;BME280;12423;48.768;8.850;2023-02-12T06:44:54;98921.72;;;3.67;100.00
24306;BME280;12423;48.768;8.850;2023-02-12T06:46:55;98918.31;;;3.64;100.00
24306;BME280;12423;48.768;8.850;2023-02-12T06:48:59;98918.31;;;3.64;100.00
24306;BME280;12423;48.768;8.850;2023-02-12T06:51:11;98923.56;;;3.65;100.00
24306;BME280;12423;48.768;8.850;2023-02-12T06:53:12;98923.56;;;3.65;100.00
24306;BME280;12423;48.768;8.850;2023-02-12T06:55:13;98923.34;;;3.73;100.00
24306;BME280;12423;48.768;8.850;2023-02-12T06:57:14;98928.69;;;3.72;100.00
24306;BME280;12423;48.768;8.850;2023-02-12T06:59:15;98932.19;;;3.72;100.00
24306;BME280;12423;48.768;8.850;2023-02-12T07:01:19;98930.56;;;3.68;100.00
24306;BME280;12423;48.768;8.850;2023-02-12T07:03:21;98934.13;;;3.65;100.00
24306;BME280;12423;48.768;8.850;2023-02-12T07:05:23;98932.34;;;3.66;100.00
24306;BME280;12423;48.768;8.850;2023-02-12T07:07:24;98935.91;;;3.65;100.00
24306;BME280;12423;48.768;8.850;2023-02-12T07:09:25;98939.50;;;3.62;100.00
24306;BME280;12423;48.768;8.850;2023-02-12T07:11:29;98938.19;;;3.77;100.00
24306;BME280;12423;48.768;8.850;2023-02-12T07:13:31;98932.66;;;3.86;100.00
24306;BME280;12423;48.768;8.850;2023-02-12T07:15:37;98938.94;;;3.82;100.00
24306;BME280;12423;48.768;8.850;2023-02-12T07:17:38;98936.16;;;3.87;100.00
24306;BME280;12423;48.768;8.850;2023-02-12T07:19:39;98937.88;;;3.90;100.00
24306;BME280;12423;48.768;8.850;2023-02-12T07:21:41;98943.00;;;3.94;100.00
24306;BME280;12423;48.768;8.850;2023-02-12T07:23:46;98948.25;;;3.96;100.00
24306;BME280;12423;48.768;8.850;2023-02-12T07:25:57;98941.97;;;4.00;100.00
24306;BME280;12423;48.768;8.850;2023-02-12T07:27:59;98939.19;;;4.04;100.00
24306;BME280;12423;48.768;8.850;2023-02-12T07:29:59;98939.94;;;4.10;100.00
24306;BME280;12423;48.768;8.850;2023-02-12T07:32:00;98938.00;;;4.15;100.00
24306;BME280;12423;48.768;8.850;2023-02-12T07:34:01;98937.16;;;4.14;100.00
24306;BME280;12423;48.768;8.850;2023-02-12T07:36:04;98939.69;;;4.17;100.00
24306;BME280;12423;48.768;8.850;2023-02-12T07:38:06;98937.78;;;4.22;100.00
24306;BME280;12423;48.768;8.850;2023-02-12T07:40:07;98931.56;;;4.23;100.00
24306;BME280;12423;48.768;8.850;2023-02-12T07:42:08;98940.31;;;4.25;100.00
24306;BME280;12423;48.768;8.850;2023-02-12T07:44:10;98936.69;;;4.30;100.00
24306;BME280;12423;48.768;8.850;2023-02-12T07:46:18;98941.06;;;4.31;100.00
24306;BME280;12423;48.768;8.850;2023-02-12T07:48:19;98944.69;;;4.27;100.00
24306;BME280;12423;48.768;8.850;2023-02-12T07:50:20;98940.94;;;4.34;100.00
24306;BME280;12423;48.768;8.850;2023-02-12T07:52:21;98939.16;;;4.36;100.00
24306;BME280;12423;48.768;8.850;2023-02-12T07:54:22;98942.38;;;4.46;100.00
24306;BME280;12423;48.768;8.850;2023-02-12T07:56:25;98934.25;;;4.50;100.00
24306;BME280;12423;48.768;8.850;2023-02-12T07:58:30;98938.66;;;4.51;100.00
24306;BME280;12423;48.768;8.850;2023-02-12T08:00:31;98935.91;;;4.54;100.00
24306;BME280;12423;48.768;8.850;2023-02-12T08:02:32;98934.88;;;4.58;100.00
24306;BME280;12423;48.768;8.850;2023-02-12T08:04:33;98939.28;;;4.59;100.00
24306;BME280;12423;48.768;8.850;2023-02-12T08:06:37;98929.31;;;4.68;100.00
24306;BME280;12423;48.768;8.850;2023-02-12T08:08:38;98934.28;;;4.78;100.00
24306;BME280;12423;48.768;8.850;2023-02-12T08:10:39;98928.00;;;4.81;100.00
24306;BME280;12423;48.768;8.850;2023-02-12T08:12:40;98926.16;;;4.83;100.00
24306;BME280;12423;48.768;8.850;2023-02-12T08:14:41;98930.50;;;4.86;100.00
24306;BME280;12423;48.768;8.850;2023-02-12T08:16:44;98928.72;;;4.86;100.00
24306;BME280;12423;48.768;8.850;2023-02-12T08:18:45;98929.44;;;4.91;100.00
24306;BME280;12423;48.768;8.850;2023-02-12T08:20:46;98924.03;;;4.94;100.00
24306;BME280;12423;48.768;8.850;2023-02-12T08:22:47;98919.59;;;4.95;100.00
24306;BME280;12423;48.768;8.850;2023-02-12T08:24:48;98927.19;;;5.06;100.00
24306;BME280;12423;48.768;8.850;2023-02-12T08:26:50;98920.56;;;5.19;100.00
24306;BME280;12423;48.768;8.850;2023-02-12T08:29:03;98921.59;;;5.15;100.00
24306;BME280;12423;48.768;8.850;2023-02-12T08:31:06;98921.41;;;5.20;100.00
24306;BME280;12423;48.768;8.850;2023-02-12T08:33:07;98923.69;;;5.30;100.00
24306;BME280;12423;48.768;8.850;2023-02-12T08:35:08;98918.72;;;5.21;100.00
24306;BME280;12423;48.768;8.850;2023-02-12T08:37:09;98923.91;;;5.24;100.00
24306;BME280;12423;48.768;8.850;2023-02-12T08:39:11;98917.59;;;5.28;100.00
24306;BME280;12423;48.768;8.850;2023-02-12T08:41:17;98927.00;;;5.37;100.00
24306;BME280;12423;48.768;8.850;2023-02-12T08:43:18;98924.16;;;5.43;100.00
24306;BME280;12423;48.768;8.850;2023-02-12T08:45:19;98934.66;;;5.46;100.00
24306;BME280;12423;48.768;8.850;2023-02-12T08:47:20;98933.53;;;5.52;100.00
24306;BME280;12423;48.768;8.850;2023-02-12T08:49:29;98934.41;;;5.52;100.00
24306;BME280;12423;48.768;8.850;2023-02-12T08:51:32;98940.59;;;5.53;100.00
24306;BME280;12423;48.768;8.850;2023-02-12T08:53:33;98939.44;;;5.60;100.00
24306;BME280;12423;48.768;8.850;2023-02-12T08:55:34;98943.59;;;5.67;100.00
24306;BME280;12423;48.768;8.850;2023-02-12T08:57:35;98944.25;;;5.74;100.00
24306;BME280;12423;48.768;8.850;2023-02-12T08:59:36;98944.44;;;5.69;100.00
24306;BME280;12423;48.768;8.850;2023-02-12T09:01:38;98938.25;;;5.69;100.00
24306;BME280;12423;48.768;8.850;2023-02-12T09:03:40;98941.69;;;5.72;100.00
24306;BME280;12423;48.768;8.850;2023-02-12T09:05:41;98938.56;;;5.85;100.00
24306;BME280;12423;48.768;8.850;2023-02-12T09:07:42;98940.47;;;5.81;100.00
24306;BME280;12423;48.768;8.850;2023-02-12T09:09:43;98933.41;;;5.80;100.00
24306;BME280;12423;48.768;8.850;2023-02-12T09:11:45;98945.72;;;5.83;100.00
24306;BME280;12423;48.768;8.850;2023-02-12T09:13:46;98942.97;;;5.86;100.00
24306;BME280;12423;48.768;8.850;2023-02-12T09:15:47;98942.56;;;5.97;100.00
24306;BME280;12423;48.768;8.850;2023-02-12T09:17:48;98944.44;;;5.93;100.00
24306;BME280;12423;48.768;8.850;2023-02-12T09:19:49;98945.25;;;5.95;100.00
24306;BME280;12423;48.768;8.850;2023-02-12T09:21:54;98940.50;;;6.05;100.00
24306;BME280;12423;48.768;8.850;2023-02-12T09:23:55;98938.53;;;6.10;100.00
24306;BME280;12423;48.768;8.850;2023-02-12T09:25:56;98940.13;;;6.16;100.00
24306;BME280;12423;48.768;8.850;2023-02-12T09:27:57;98936.50;;;6.17;100.00
24306;BME280;12423;48.768;8.850;2023-02-12T09:29:58;98943.50;;;6.19;100.00
24306;BME280;12423;48.768;8.850;2023-02-12T09:31:59;98949.28;;;6.31;100.00
24306;BME280;12423;48.768;8.850;2023-02-12T09:34:04;98946.19;;;6.41;100.00
24306;BME280;12423;48.768;8.850;2023-02-12T09:36:08;98956.00;;;6.39;100.00
24306;BME280;12423;48.768;8.850;2023-02-12T09:38:09;98955.00;;;6.43;100.00
24306;BME280;12423;48.768;8.850;2023-02-12T09:40:21;98954.84;;;6.46;100.00
24306;BME280;12423;48.768;8.850;2023-02-12T09:45:12;98945.22;;;6.66;100.00
24306;BME280;12423;48.768;8.850;2023-02-12T09:52:25;98942.34;;;6.72;100.00
24306;BME280;12423;48.768;8.850;2023-02-12T09:54:37;98942.28;;;6.74;100.00
24306;BME280;12423;48.768;8.850;2023-02-12T09:56:39;98946.22;;;6.86;100.00
24306;BME280;12423;48.768;8.850;2023-02-12T10:00:43;98942.44;;;6.91;100.00
24306;BME280;12423;48.768;8.850;2023-02-12T10:02:45;98942.81;;;7.04;100.00
24306;BME280;12423;48.768;8.850;2023-02-12T10:04:47;98937.19;;;7.12;100.00
24306;BME280;12423;48.768;8.850;2023-02-12T10:06:59;98944.78;;;7.21;100.00
24306;BME280;12423;48.768;8.850;2023-02-12T10:11:48;98940.13;;;7.26;100.00
24306;BME280;12423;48.768;8.850;2023-02-12T10:14:00;98943.31;;;7.34;100.00
24306;BME280;12423;48.768;8.850;2023-02-12T10:16:48;98941.81;;;7.49;100.00
24306;BME280;12423;48.768;8.850;2023-02-12T10:21:08;98940.25;;;7.44;100.00
24306;BME280;12423;48.768;8.850;2023-02-12T10:25:35;98931.81;;;7.34;100.00
24306;BME280;12423;48.768;8.850;2023-02-12T10:27:50;98933.91;;;7.26;100.00
24306;BME280;12423;48.768;8.850;2023-02-12T10:29:53;98934.41;;;7.35;100.00
24306;BME280;12423;48.768;8.850;2023-02-12T10:32:28;98933.78;;;7.29;100.00
24306;BME280;12423;48.768;8.850;2023-02-12T10:34:35;98936.28;;;7.33;100.00
24306;BME280;12423;48.768;8.850;2023-02-12T10:36:38;98932.75;;;7.53;100.00
24306;BME280;12423;48.768;8.850;2023-02-12T10:38:44;98932.69;;;7.55;100.00
24306;BME280;12423;48.768;8.850;2023-02-12T10:40:47;98932.63;;;7.56;100.00
24306;BME280;12423;48.768;8.850;2023-02-12T10:42:51;98930.81;;;7.57;100.00
24306;BME280;12423;48.768;8.850;2023-02-12T10:44:52;98926.91;;;7.66;100.00
24306;BME280;12423;48.768;8.850;2023-02-12T10:46:53;98921.50;;;7.67;100.00
24306;BME280;12423;48.768;8.850;2023-02-12T10:48:56;98928.47;;;7.70;100.00
24306;BME280;12423;48.768;8.850;2023-02-12T10:53:25;98926.81;;;7.47;100.00
24306;BME280;12423;48.768;8.850;2023-02-12T10:57:32;98926.50;;;7.54;100.00
24306;BME280;12423;48.768;8.850;2023-02-12T10:59:33;98927.22;;;7.58;100.00
24306;BME280;12423;48.768;8.850;2023-02-12T11:01:36;98921.91;;;7.58;100.00
24306;BME280;12423;48.768;8.850;2023-02-12T11:03:38;98918.56;;;7.73;100.00
24306;BME280;12423;48.768;8.850;2023-02-12T11:05:41;98918.28;;;7.80;100.00
24306;BME280;12423;48.768;8.850;2023-02-12T11:07:48;98915.00;;;7.93;100.00
24306;BME280;12423;48.768;8.850;2023-02-12T11:09:52;98907.97;;;7.92;100.00
24306;BME280;12423;48.768;8.850;2023-02-12T11:11:53;98913.69;;;7.83;100.00
24306;BME280;12423;48.768;8.850;2023-02-12T11:14:06;98917.00;;;7.88;100.00
24306;BME280;12423;48.768;8.850;2023-02-12T11:16:26;98907.25;;;7.89;100.00
24306;BME280;12423;48.768;8.850;2023-02-12T11:18:29;98912.69;;;7.86;100.00
24306;BME280;12423;48.768;8.850;2023-02-12T11:20:49;98912.28;;;8.14;100.00
24306;BME280;12423;48.768;8.850;2023-02-12T11:22:59;98900.84;;;8.31;100.00
24306;BME280;12423;48.768;8.850;2023-02-12T11:25:13;98903.00;;;8.42;100.00
24306;BME280;12423;48.768;8.850;2023-02-12T11:27:22;98901.06;;;8.26;100.00
24306;BME280;12423;48.768;8.850;2023-02-12T11:29:24;98898.47;;;8.25;100.00
24306;BME280;12423;48.768;8.850;2023-02-12T11:31:30;98903.56;;;8.29;100.00
24306;BME280;12423;48.768;8.850;2023-02-12T11:33:33;98895.38;;;8.34;100.00
24306;BME280;12423;48.768;8.850;2023-02-12T11:35:34;98901.38;;;8.20;100.00
24306;BME280;12423;48.768;8.850;2023-02-12T11:37:39;98897.47;;;8.27;100.00
24306;BME280;12423;48.768;8.850;2023-02-12T11:39:45;98892.88;;;8.12;100.00
24306;BME280;12423;48.768;8.850;2023-02-12T11:41:51;98895.59;;;8.10;100.00
24306;BME280;12423;48.768;8.850;2023-02-12T11:43:53;98890.72;;;8.20;100.00